sensor_id;sensor_type;location;lat;lon;timestamp;P1;durP1;ratioP1;P2;durP2;ratioP2
8232;SDS011;4157;48.074;9.952;2023-03-05T00:01:59;44.45;;;31.38;;
8232;SDS011;4157;48.074;9.952;2023-03-05T00:04:27;46.50;;;32.70;;
8232;SDS011;4157;48.074;9.952;2023-03-05T00:06:55;47.72;;;33.55;;
8232;SDS011;4157;48.074;9.952;2023-03-05T00:09:23;44.65;;;32.72;;
8232;SDS011;4157;48.074;9.952;2023-03-05T00:11:50;49.90;;;35.25;;
8232;SDS011;4157;48.074;9.952;2023-03-05T00:14:19;47.35;;;33.83;;
8232;SDS011;4157;48.074;9.952;2023-03-05T00:16:47;48.05;;;34.25;;
8232;SDS011;4157;48.074;9.952;2023-03-05T00:19:15;46.38;;;33.42;;
8232;SDS011;4157;48.074;9.952;2023-03-05T00:21:42;45.22;;;32.20;;
8232;SDS011;4157;48.074;9.952;2023-03-05T00:24:11;45.00;;;32.38;;
8232;SDS011;4157;48.074;9.952;2023-03-05T00:26:39;44.17;;;32.80;;
8232;SDS011;4157;48.074;9.952;2023-03-05T00:29:07;44.05;;;33.03;;
8232;SDS011;4157;48.074;9.952;2023-03-05T00:31:37;46.92;;;34.42;;
8232;SDS011;4157;48.074;9.952;2023-03-05T00:34:06;50.92;;;32.20;;
8232;SDS011;4157;48.074;9.952;2023-03-05T00:36:37;50.70;;;33.13;;
8232;SDS011;4157;48.074;9.952;2023-03-05T00:39:05;46.83;;;32.42;;
8232;SDS011;4157;48.074;9.952;2023-03-05T00:41:33;46.33;;;31.45;;
8232;SDS011;4157;48.074;9.952;2023-03-05T00:44:01;48.15;;;34.13;;
8232;SDS011;4157;48.074;9.952;2023-03-05T00:46:28;45.15;;;32.30;;
8232;SDS011;4157;48.074;9.952;2023-03-05T00:48:57;45.08;;;32.88;;
8232;SDS011;4157;48.074;9.952;2023-03-05T00:51:25;48.05;;;33.30;;
8232;SDS011;4157;48.074;9.952;2023-03-05T00:53:53;46.35;;;31.88;;
8232;SDS011;4157;48.074;9.952;2023-03-05T00:56:21;50.60;;;34.85;;
8232;SDS011;4157;48.074;9.952;2023-03-05T00:58:49;49.45;;;34.10;;
8232;SDS011;4157;48.074;9.952;2023-03-05T01:01:17;46.88;;;32.95;;
8232;SDS011;4157;48.074;9.952;2023-03-05T01:03:45;49.50;;;33.88;;
8232;SDS011;4157;48.074;9.952;2023-03-05T01:06:14;49.97;;;34.03;;
8232;SDS011;4157;48.074;9.952;2023-03-05T01:08:43;47.22;;;34.00;;
8232;SDS011;4157;48.074;9.952;2023-03-05T01:11:11;47.03;;;35.25;;
8232;SDS011;4157;48.074;9.952;2023-03-05T01:13:38;47.35;;;33.50;;
8232;SDS011;4157;48.074;9.952;2023-03-05T01:16:06;43.78;;;32.08;;
8232;SDS011;4157;48.074;9.952;2023-03-05T01:18:35;49.53;;;32.75;;
8232;SDS011;4157;48.074;9.952;2023-03-05T01:21:03;47.70;;;33.13;;
8232;SDS011;4157;48.074;9.952;2023-03-05T01:23:33;45.80;;;34.15;;
8232;SDS011;4157;48.074;9.952;2023-03-05T01:26:02;45.92;;;31.63;;
8232;SDS011;4157;48.074;9.952;2023-03-05T01:28:30;45.53;;;33.08;;
8232;SDS011;4157;48.074;9.952;2023-03-05T01:30:58;49.38;;;33.47;;
8232;SDS011;4157;48.074;9.952;2023-03-05T01:33:25;48.15;;;32.17;;
8232;SDS011;4157;48.074;9.952;2023-03-05T01:35:53;48.03;;;33.08;;
8232;SDS011;4157;48.074;9.952;2023-03-05T01:38:21;44.70;;;32.25;;
8232;SDS011;4157;48.074;9.952;2023-03-05T01:40:50;49.22;;;32.75;;
8232;SDS011;4157;48.074;9.952;2023-03-05T01:43:20;46.85;;;32.10;;
8232;SDS011;4157;48.074;9.952;2023-03-05T01:48:34;45.60;;;33.25;;
8232;SDS011;4157;48.074;9.952;2023-03-05T01:51:02;44.28;;;33.17;;
8232;SDS011;4157;48.074;9.952;2023-03-05T01:53:30;46.58;;;31.52;;
8232;SDS011;4157;48.074;9.952;2023-03-05T01:55:59;48.33;;;32.88;;
8232;SDS011;4157;48.074;9.952;2023-03-05T01:58:27;48.05;;;34.45;;
8232;SDS011;4157;48.074;9.952;2023-03-05T02:00:55;46.65;;;32.92;;
8232;SDS011;4157;48.074;9.952;2023-03-05T02:03:23;48.38;;;33.47;;
8232;SDS011;4157;48.074;9.952;2023-03-05T02:05:51;45.58;;;31.85;;
8232;SDS011;4157;48.074;9.952;2023-03-05T02:08:20;47.30;;;34.30;;
8232;SDS011;4157;48.074;9.952;2023-03-05T02:10:48;44.08;;;31.77;;
8232;SDS011;4157;48.074;9.952;2023-03-05T02:13:19;48.58;;;34.60;;
8232;SDS011;4157;48.074;9.952;2023-03-05T02:15:48;49.22;;;34.00;;
8232;SDS011;4157;48.074;9.952;2023-03-05T02:18:16;49.90;;;33.58;;
8232;SDS011;4157;48.074;9.952;2023-03-05T02:20:45;46.03;;;22.92;;
8232;SDS011;4157;48.074;9.952;2023-03-05T02:23:15;47.72;;;34.10;;
8232;SDS011;4157;48.074;9.952;2023-03-05T02:25:43;48.47;;;33.15;;
8232;SDS011;4157;48.074;9.952;2023-03-05T02:28:12;48.53;;;33.80;;
8232;SDS011;4157;48.074;9.952;2023-03-05T02:30:42;48.40;;;34.88;;
8232;SDS011;4157;48.074;9.952;2023-03-05T02:33:10;48.05;;;34.65;;
8232;SDS011;4157;48.074;9.952;2023-03-05T02:35:38;48.28;;;33.58;;
8232;SDS011;4157;48.074;9.952;2023-03-05T02:38:05;50.90;;;34.78;;
8232;SDS011;4157;48.074;9.952;2023-03-05T02:40:35;46.42;;;33.55;;
8232;SDS011;4157;48.074;9.952;2023-03-05T02:43:03;54.03;;;36.03;;
8232;SDS011;4157;48.074;9.952;2023-03-05T02:45:31;49.30;;;35.38;;
8232;SDS011;4157;48.074;9.952;2023-03-05T02:47:58;49.13;;;23.38;;
8232;SDS011;4157;48.074;9.952;2023-03-05T02:50:26;50.83;;;35.63;;
8232;SDS011;4157;48.074;9.952;2023-03-05T02:52:54;48.40;;;34.92;;
8232;SDS011;4157;48.074;9.952;2023-03-05T02:55:22;48.97;;;34.63;;
8232;SDS011;4157;48.074;9.952;2023-03-05T02:57:51;46.75;;;33.70;;
8232;SDS011;4157;48.074;9.952;2023-03-05T03:00:19;44.95;;;32.88;;
8232;SDS011;4157;48.074;9.952;2023-03-05T03:02:47;43.42;;;32.53;;
8232;SDS011;4157;48.074;9.952;2023-03-05T03:05:14;49.38;;;34.58;;
8232;SDS011;4157;48.074;9.952;2023-03-05T03:07:42;53.05;;;37.33;;
8232;SDS011;4157;48.074;9.952;2023-03-05T03:10:11;57.10;;;39.22;;
8232;SDS011;4157;48.074;9.952;2023-03-05T03:12:39;53.05;;;36.90;;
8232;SDS011;4157;48.074;9.952;2023-03-05T03:15:08;50.60;;;35.55;;
8232;SDS011;4157;48.074;9.952;2023-03-05T03:17:37;49.60;;;33.20;;
8232;SDS011;4157;48.074;9.952;2023-03-05T03:20:06;49.67;;;34.72;;
8232;SDS011;4157;48.074;9.952;2023-03-05T03:22:34;48.85;;;23.23;;
8232;SDS011;4157;48.074;9.952;2023-03-05T03:25:03;49.80;;;23.40;;
8232;SDS011;4157;48.074;9.952;2023-03-05T03:27:31;49.42;;;34.38;;
8232;SDS011;4157;48.074;9.952;2023-03-05T03:29:58;51.38;;;35.22;;
8232;SDS011;4157;48.074;9.952;2023-03-05T03:32:31;47.35;;;33.65;;
8232;SDS011;4157;48.074;9.952;2023-03-05T03:34:59;53.38;;;36.47;;
8232;SDS011;4157;48.074;9.952;2023-03-05T03:37:27;49.80;;;34.20;;
8232;SDS011;4157;48.074;9.952;2023-03-05T03:39:55;46.30;;;33.80;;
8232;SDS011;4157;48.074;9.952;2023-03-05T03:42:23;45.30;;;32.92;;
8232;SDS011;4157;48.074;9.952;2023-03-05T03:44:51;50.35;;;35.22;;
8232;SDS011;4157;48.074;9.952;2023-03-05T03:47:19;44.25;;;20.90;;
8232;SDS011;4157;48.074;9.952;2023-03-05T03:49:48;48.83;;;34.97;;
8232;SDS011;4157;48.074;9.952;2023-03-05T03:52:15;52.75;;;34.38;;
8232;SDS011;4157;48.074;9.952;2023-03-05T03:54:43;50.63;;;35.60;;
8232;SDS011;4157;48.074;9.952;2023-03-05T03:57:11;50.13;;;36.38;;
8232;SDS011;4157;48.074;9.952;2023-03-05T03:59:38;48.50;;;33.15;;
8232;SDS011;4157;48.074;9.952;2023-03-05T04:02:06;50.58;;;36.47;;
8232;SDS011;4157;48.074;9.952;2023-03-05T04:04:34;43.38;;;22.23;;
8232;SDS011;4157;48.074;9.952;2023-03-05T04:07:03;47.53;;;22.60;;
8232;SDS011;4157;48.074;9.952;2023-03-05T04:09:31;48.03;;;22.60;;
8232;SDS011;4157;48.074;9.952;2023-03-05T04:11:58;50.50;;;34.55;;
8232;SDS011;4157;48.074;9.952;2023-03-05T04:14:26;47.00;;;33.65;;
8232;SDS011;4157;48.074;9.952;2023-03-05T04:16:54;49.30;;;34.47;;
8232;SDS011;4157;48.074;9.952;2023-03-05T04:19:22;48.83;;;33.35;;
8232;SDS011;4157;48.074;9.952;2023-03-05T04:21:49;46.08;;;20.83;;
8232;SDS011;4157;48.074;9.952;2023-03-05T04:24:18;47.30;;;33.35;;
8232;SDS011;4157;48.074;9.952;2023-03-05T04:26:46;46.13;;;33.17;;
8232;SDS011;4157;48.074;9.952;2023-03-05T04:29:14;50.13;;;34.42;;
8232;SDS011;4157;48.074;9.952;2023-03-05T04:31:41;47.33;;;33.05;;
8232;SDS011;4157;48.074;9.952;2023-03-05T04:34:09;49.90;;;34.25;;
8232;SDS011;4157;48.074;9.952;2023-03-05T04:36:37;49.05;;;33.38;;
8232;SDS011;4157;48.074;9.952;2023-03-05T04:39:04;45.08;;;21.65;;
8232;SDS011;4157;48.074;9.952;2023-03-05T04:41:33;47.38;;;33.47;;
8232;SDS011;4157;48.074;9.952;2023-03-05T04:44:01;47.08;;;32.88;;
8232;SDS011;4157;48.074;9.952;2023-03-05T04:46:29;45.67;;;30.95;;
8232;SDS011;4157;48.074;9.952;2023-03-05T04:48:57;46.95;;;22.35;;
8232;SDS011;4157;48.074;9.952;2023-03-05T04:51:25;45.63;;;30.85;;
8232;SDS011;4157;48.074;9.952;2023-03-05T04:53:52;47.13;;;31.83;;
8232;SDS011;4157;48.074;9.952;2023-03-05T04:56:20;47.25;;;31.98;;
8232;SDS011;4157;48.074;9.952;2023-03-05T04:58:49;44.10;;;31.40;;
8232;SDS011;4157;48.074;9.952;2023-03-05T05:01:17;50.80;;;33.67;;
8232;SDS011;4157;48.074;9.952;2023-03-05T05:03:44;43.75;;;22.83;;
8232;SDS011;4157;48.074;9.952;2023-03-05T05:06:12;44.05;;;21.00;;
8232;SDS011;4157;48.074;9.952;2023-03-05T05:08:40;46.58;;;33.45;;
8232;SDS011;4157;48.074;9.952;2023-03-05T05:11:10;49.25;;;32.53;;
8232;SDS011;4157;48.074;9.952;2023-03-05T05:13:39;50.15;;;21.85;;
8232;SDS011;4157;48.074;9.952;2023-03-05T05:16:08;43.97;;;21.58;;
8232;SDS011;4157;48.074;9.952;2023-03-05T05:18:36;43.38;;;30.40;;
8232;SDS011;4157;48.074;9.952;2023-03-05T05:21:06;43.53;;;30.92;;
8232;SDS011;4157;48.074;9.952;2023-03-05T05:23:33;42.70;;;30.70;;
8232;SDS011;4157;48.074;9.952;2023-03-05T05:26:02;42.70;;;29.77;;
8232;SDS011;4157;48.074;9.952;2023-03-05T05:28:30;42.15;;;28.60;;
8232;SDS011;4157;48.074;9.952;2023-03-05T05:30:58;42.92;;;28.65;;
8232;SDS011;4157;48.074;9.952;2023-03-05T05:33:27;36.40;;;18.52;;
8232;SDS011;4157;48.074;9.952;2023-03-05T05:35:54;40.53;;;17.80;;
8232;SDS011;4157;48.074;9.952;2023-03-05T05:38:22;40.25;;;20.33;;
8232;SDS011;4157;48.074;9.952;2023-03-05T05:40:50;40.75;;;28.42;;
8232;SDS011;4157;48.074;9.952;2023-03-05T05:43:18;41.53;;;28.45;;
8232;SDS011;4157;48.074;9.952;2023-03-05T05:45:45;41.20;;;27.95;;
8232;SDS011;4157;48.074;9.952;2023-03-05T05:48:13;35.83;;;17.33;;
8232;SDS011;4157;48.074;9.952;2023-03-05T05:50:42;37.17;;;26.60;;
8232;SDS011;4157;48.074;9.952;2023-03-05T05:53:10;35.47;;;17.85;;
8232;SDS011;4157;48.074;9.952;2023-03-05T05:55:38;41.45;;;19.50;;
8232;SDS011;4157;48.074;9.952;2023-03-05T05:58:06;36.25;;;18.15;;
8232;SDS011;4157;48.074;9.952;2023-03-05T06:00:34;37.28;;;26.63;;
8232;SDS011;4157;48.074;9.952;2023-03-05T06:03:01;36.20;;;26.25;;
8232;SDS011;4157;48.074;9.952;2023-03-05T06:05:29;38.65;;;17.33;;
8232;SDS011;4157;48.074;9.952;2023-03-05T06:07:58;40.13;;;17.95;;
8232;SDS011;4157;48.074;9.952;2023-03-05T06:10:26;43.05;;;27.27;;
8232;SDS011;4157;48.074;9.952;2023-03-05T06:12:54;36.65;;;26.83;;
8232;SDS011;4157;48.074;9.952;2023-03-05T06:15:22;38.55;;;27.40;;
8232;SDS011;4157;48.074;9.952;2023-03-05T06:17:49;44.85;;;26.45;;
8232;SDS011;4157;48.074;9.952;2023-03-05T06:20:19;39.83;;;26.08;;
8232;SDS011;4157;48.074;9.952;2023-03-05T06:22:47;35.85;;;17.05;;
8232;SDS011;4157;48.074;9.952;2023-03-05T06:25:16;38.75;;;25.60;;
8232;SDS011;4157;48.074;9.952;2023-03-05T06:27:45;36.42;;;24.60;;
8232;SDS011;4157;48.074;9.952;2023-03-05T06:30:13;38.78;;;25.67;;
8232;SDS011;4157;48.074;9.952;2023-03-05T06:32:40;34.75;;;24.25;;
8232;SDS011;4157;48.074;9.952;2023-03-05T06:35:08;37.05;;;24.98;;
8232;SDS011;4157;48.074;9.952;2023-03-05T06:37:36;35.17;;;23.35;;
8232;SDS011;4157;48.074;9.952;2023-03-05T06:40:04;27.75;;;13.70;;
8232;SDS011;4157;48.074;9.952;2023-03-05T06:42:33;31.00;;;14.88;;
8232;SDS011;4157;48.074;9.952;2023-03-05T06:45:01;33.17;;;22.42;;
8232;SDS011;4157;48.074;9.952;2023-03-05T06:47:29;33.95;;;23.13;;
8232;SDS011;4157;48.074;9.952;2023-03-05T06:49:57;34.40;;;23.33;;
8232;SDS011;4157;48.074;9.952;2023-03-05T06:52:25;35.55;;;24.38;;
8232;SDS011;4157;48.074;9.952;2023-03-05T06:54:52;34.47;;;16.20;;
8232;SDS011;4157;48.074;9.952;2023-03-05T06:57:20;31.17;;;16.00;;
8232;SDS011;4157;48.074;9.952;2023-03-05T06:59:49;37.33;;;25.08;;
8232;SDS011;4157;48.074;9.952;2023-03-05T07:02:17;37.13;;;24.58;;
8232;SDS011;4157;48.074;9.952;2023-03-05T07:04:45;38.03;;;24.60;;
8232;SDS011;4157;48.074;9.952;2023-03-05T07:07:13;34.92;;;23.75;;
8232;SDS011;4157;48.074;9.952;2023-03-05T07:09:40;32.55;;;23.42;;
8232;SDS011;4157;48.074;9.952;2023-03-05T07:12:10;33.08;;;15.95;;
8232;SDS011;4157;48.074;9.952;2023-03-05T07:14:38;34.30;;;24.75;;
8232;SDS011;4157;48.074;9.952;2023-03-05T07:17:07;32.15;;;23.10;;
8232;SDS011;4157;48.074;9.952;2023-03-05T07:19:35;35.95;;;24.25;;
8232;SDS011;4157;48.074;9.952;2023-03-05T07:22:05;36.28;;;25.15;;
8232;SDS011;4157;48.074;9.952;2023-03-05T07:24:32;33.05;;;16.75;;
8232;SDS011;4157;48.074;9.952;2023-03-05T07:27:00;35.42;;;16.90;;
8232;SDS011;4157;48.074;9.952;2023-03-05T07:29:28;36.20;;;24.67;;
8232;SDS011;4157;48.074;9.952;2023-03-05T07:31:56;37.55;;;24.42;;
8232;SDS011;4157;48.074;9.952;2023-03-05T07:34:25;33.95;;;17.00;;
8232;SDS011;4157;48.074;9.952;2023-03-05T07:36:52;34.78;;;24.55;;
8232;SDS011;4157;48.074;9.952;2023-03-05T07:39:20;33.10;;;23.90;;
8232;SDS011;4157;48.074;9.952;2023-03-05T07:41:48;33.38;;;23.77;;
8232;SDS011;4157;48.074;9.952;2023-03-05T07:44:16;34.45;;;24.98;;
8232;SDS011;4157;48.074;9.952;2023-03-05T07:46:44;32.35;;;22.60;;
8232;SDS011;4157;48.074;9.952;2023-03-05T07:49:12;32.67;;;23.27;;
8232;SDS011;4157;48.074;9.952;2023-03-05T07:51:41;35.42;;;24.33;;
8232;SDS011;4157;48.074;9.952;2023-03-05T07:54:09;35.67;;;24.40;;
8232;SDS011;4157;48.074;9.952;2023-03-05T07:56:37;37.78;;;23.60;;
8232;SDS011;4157;48.074;9.952;2023-03-05T07:59:05;29.95;;;15.32;;
8232;SDS011;4157;48.074;9.952;2023-03-05T08:01:33;33.47;;;21.80;;
8232;SDS011;4157;48.074;9.952;2023-03-05T08:04:01;29.33;;;14.25;;
8232;SDS011;4157;48.074;9.952;2023-03-05T08:06:29;31.15;;;20.27;;
8232;SDS011;4157;48.074;9.952;2023-03-05T08:08:58;34.78;;;21.70;;
8232;SDS011;4157;48.074;9.952;2023-03-05T08:11:26;30.13;;;21.58;;
8232;SDS011;4157;48.074;9.952;2023-03-05T08:13:54;33.35;;;22.30;;
8232;SDS011;4157;48.074;9.952;2023-03-05T08:16:24;30.33;;;21.23;;
8232;SDS011;4157;48.074;9.952;2023-03-05T08:18:52;28.90;;;14.43;;
8232;SDS011;4157;48.074;9.952;2023-03-05T08:21:21;32.65;;;22.90;;
8232;SDS011;4157;48.074;9.952;2023-03-05T08:23:51;31.02;;;20.90;;
8232;SDS011;4157;48.074;9.952;2023-03-05T08:26:22;32.45;;;21.35;;
8232;SDS011;4157;48.074;9.952;2023-03-05T08:28:51;26.42;;;17.83;;
8232;SDS011;4157;48.074;9.952;2023-03-05T08:31:19;25.27;;;16.77;;
8232;SDS011;4157;48.074;9.952;2023-03-05T08:33:48;25.83;;;17.48;;
8232;SDS011;4157;48.074;9.952;2023-03-05T08:36:16;27.88;;;17.95;;
8232;SDS011;4157;48.074;9.952;2023-03-05T08:38:43;26.40;;;11.30;;
8232;SDS011;4157;48.074;9.952;2023-03-05T08:41:13;29.33;;;13.02;;
8232;SDS011;4157;48.074;9.952;2023-03-05T08:43:42;30.25;;;20.20;;
8232;SDS011;4157;48.074;9.952;2023-03-05T08:46:10;32.72;;;23.23;;
8232;SDS011;4157;48.074;9.952;2023-03-05T08:48:38;31.98;;;21.00;;
8232;SDS011;4157;48.074;9.952;2023-03-05T08:51:06;31.58;;;22.33;;
8232;SDS011;4157;48.074;9.952;2023-03-05T08:53:34;31.25;;;12.77;;
8232;SDS011;4157;48.074;9.952;2023-03-05T08:56:02;26.95;;;19.13;;
8232;SDS011;4157;48.074;9.952;2023-03-05T08:58:30;28.55;;;19.98;;
8232;SDS011;4157;48.074;9.952;2023-03-05T09:00:59;27.20;;;19.40;;
8232;SDS011;4157;48.074;9.952;2023-03-05T09:03:27;29.73;;;19.40;;
8232;SDS011;4157;48.074;9.952;2023-03-05T09:05:57;26.10;;;13.52;;
8232;SDS011;4157;48.074;9.952;2023-03-05T09:08:25;27.70;;;16.98;;
8232;SDS011;4157;48.074;9.952;2023-03-05T09:10:53;27.25;;;17.92;;
8232;SDS011;4157;48.074;9.952;2023-03-05T09:13:21;28.60;;;19.08;;
8232;SDS011;4157;48.074;9.952;2023-03-05T09:15:52;25.73;;;12.77;;
8232;SDS011;4157;48.074;9.952;2023-03-05T09:18:21;28.98;;;18.30;;
8232;SDS011;4157;48.074;9.952;2023-03-05T09:20:49;28.55;;;19.15;;
8232;SDS011;4157;48.074;9.952;2023-03-05T09:23:18;29.05;;;19.65;;
8232;SDS011;4157;48.074;9.952;2023-03-05T09:25:45;26.40;;;18.60;;
8232;SDS011;4157;48.074;9.952;2023-03-05T09:28:14;28.38;;;18.98;;
8232;SDS011;4157;48.074;9.952;2023-03-05T09:30:42;27.63;;;18.92;;
8232;SDS011;4157;48.074;9.952;2023-03-05T09:33:09;28.77;;;12.55;;
8232;SDS011;4157;48.074;9.952;2023-03-05T09:35:39;25.83;;;18.58;;
8232;SDS011;4157;48.074;9.952;2023-03-05T09:38:06;26.95;;;18.75;;
8232;SDS011;4157;48.074;9.952;2023-03-05T09:40:36;27.77;;;18.50;;
8232;SDS011;4157;48.074;9.952;2023-03-05T09:43:10;30.25;;;20.08;;
8232;SDS011;4157;48.074;9.952;2023-03-05T09:45:43;29.95;;;19.38;;
8232;SDS011;4157;48.074;9.952;2023-03-05T09:48:15;25.38;;;18.42;;
8232;SDS011;4157;48.074;9.952;2023-03-05T09:50:46;27.27;;;19.08;;
8232;SDS011;4157;48.074;9.952;2023-03-05T09:53:17;27.35;;;18.95;;
8232;SDS011;4157;48.074;9.952;2023-03-05T09:55:47;26.80;;;18.63;;
8232;SDS011;4157;48.074;9.952;2023-03-05T09:58:17;26.63;;;13.20;;
8232;SDS011;4157;48.074;9.952;2023-03-05T10:00:46;27.55;;;14.35;;
8232;SDS011;4157;48.074;9.952;2023-03-05T10:03:16;26.80;;;18.88;;
8232;SDS011;4157;48.074;9.952;2023-03-05T10:05:59;26.25;;;18.35;;
8232;SDS011;4157;48.074;9.952;2023-03-05T10:08:31;26.15;;;18.35;;
8232;SDS011;4157;48.074;9.952;2023-03-05T10:11:00;25.77;;;18.23;;
8232;SDS011;4157;48.074;9.952;2023-03-05T10:13:33;26.50;;;17.65;;
8232;SDS011;4157;48.074;9.952;2023-03-05T10:16:05;30.33;;;18.35;;
8232;SDS011;4157;48.074;9.952;2023-03-05T10:18:38;25.93;;;17.47;;
8232;SDS011;4157;48.074;9.952;2023-03-05T10:21:09;25.52;;;18.38;;
8232;SDS011;4157;48.074;9.952;2023-03-05T10:23:47;28.67;;;18.83;;
8232;SDS011;4157;48.074;9.952;2023-03-05T10:26:26;26.42;;;17.25;;
8232;SDS011;4157;48.074;9.952;2023-03-05T10:29:02;25.65;;;17.40;;
8232;SDS011;4157;48.074;9.952;2023-03-05T10:31:36;25.00;;;17.00;;
8232;SDS011;4157;48.074;9.952;2023-03-05T10:34:11;24.00;;;17.15;;
8232;SDS011;4157;48.074;9.952;2023-03-05T10:36:49;24.63;;;16.77;;
8232;SDS011;4157;48.074;9.952;2023-03-05T10:41:51;24.08;;;17.13;;
8232;SDS011;4157;48.074;9.952;2023-03-05T10:44:22;26.20;;;17.17;;
8232;SDS011;4157;48.074;9.952;2023-03-05T10:46:53;24.23;;;17.40;;
8232;SDS011;4157;48.074;9.952;2023-03-05T10:49:24;28.48;;;17.52;;
8232;SDS011;4157;48.074;9.952;2023-03-05T10:51:55;31.30;;;18.17;;
8232;SDS011;4157;48.074;9.952;2023-03-05T10:54:26;23.55;;;16.00;;
8232;SDS011;4157;48.074;9.952;2023-03-05T10:57:04;22.50;;;16.67;;
8232;SDS011;4157;48.074;9.952;2023-03-05T10:59:40;26.25;;;17.63;;
8232;SDS011;4157;48.074;9.952;2023-03-05T11:02:10;24.55;;;16.65;;
8232;SDS011;4157;48.074;9.952;2023-03-05T11:04:39;24.67;;;17.75;;
8232;SDS011;4157;48.074;9.952;2023-03-05T11:07:27;27.15;;;18.20;;
8232;SDS011;4157;48.074;9.952;2023-03-05T11:12:38;26.75;;;18.55;;
8232;SDS011;4157;48.074;9.952;2023-03-05T11:15:16;24.83;;;18.08;;
8232;SDS011;4157;48.074;9.952;2023-03-05T11:17:47;24.45;;;17.70;;
8232;SDS011;4157;48.074;9.952;2023-03-05T11:20:30;22.67;;;16.48;;
8232;SDS011;4157;48.074;9.952;2023-03-05T11:23:04;23.42;;;17.15;;
8232;SDS011;4157;48.074;9.952;2023-03-05T11:25:32;24.85;;;17.38;;
8232;SDS011;4157;48.074;9.952;2023-03-05T11:28:01;26.88;;;17.85;;
8232;SDS011;4157;48.074;9.952;2023-03-05T11:30:30;25.80;;;17.85;;
8232;SDS011;4157;48.074;9.952;2023-03-05T11:33:06;22.20;;;16.65;;
8232;SDS011;4157;48.074;9.952;2023-03-05T11:35:34;22.38;;;16.42;;
8232;SDS011;4157;48.074;9.952;2023-03-05T11:38:04;21.38;;;16.90;;
8232;SDS011;4157;48.074;9.952;2023-03-05T11:40:32;23.20;;;16.40;;
8232;SDS011;4157;48.074;9.952;2023-03-05T11:43:01;24.88;;;17.83;;
8232;SDS011;4157;48.074;9.952;2023-03-05T11:45:30;25.70;;;18.67;;
8232;SDS011;4157;48.074;9.952;2023-03-05T11:47:59;22.08;;;16.30;;
8232;SDS011;4157;48.074;9.952;2023-03-05T11:50:29;22.45;;;16.02;;
8232;SDS011;4157;48.074;9.952;2023-03-05T11:52:57;20.42;;;15.73;;
8232;SDS011;4157;48.074;9.952;2023-03-05T11:55:29;23.40;;;16.10;;
8232;SDS011;4157;48.074;9.952;2023-03-05T11:58:00;22.65;;;16.42;;
8232;SDS011;4157;48.074;9.952;2023-03-05T12:00:31;20.40;;;15.73;;
8232;SDS011;4157;48.074;9.952;2023-03-05T12:03:01;22.10;;;16.02;;
8232;SDS011;4157;48.074;9.952;2023-03-05T12:05:30;20.90;;;14.45;;
8232;SDS011;4157;48.074;9.952;2023-03-05T12:07:59;22.55;;;15.82;;
8232;SDS011;4157;48.074;9.952;2023-03-05T12:10:31;24.95;;;16.38;;
8232;SDS011;4157;48.074;9.952;2023-03-05T12:13:00;23.85;;;16.27;;
8232;SDS011;4157;48.074;9.952;2023-03-05T12:15:36;24.27;;;16.63;;
8232;SDS011;4157;48.074;9.952;2023-03-05T12:18:11;22.98;;;16.83;;
8232;SDS011;4157;48.074;9.952;2023-03-05T12:20:42;22.30;;;16.52;;
8232;SDS011;4157;48.074;9.952;2023-03-05T12:23:13;20.85;;;15.55;;
8232;SDS011;4157;48.074;9.952;2023-03-05T12:25:45;21.88;;;15.65;;
8232;SDS011;4157;48.074;9.952;2023-03-05T12:28:15;23.58;;;16.13;;
8232;SDS011;4157;48.074;9.952;2023-03-05T12:30:54;22.00;;;16.63;;
8232;SDS011;4157;48.074;9.952;2023-03-05T12:33:29;22.85;;;16.38;;
8232;SDS011;4157;48.074;9.952;2023-03-05T12:38:40;22.55;;;15.95;;
8232;SDS011;4157;48.074;9.952;2023-03-05T12:44:22;20.65;;;15.70;;
8232;SDS011;4157;48.074;9.952;2023-03-05T12:49:36;20.35;;;14.55;;
8232;SDS011;4157;48.074;9.952;2023-03-05T12:52:06;19.02;;;13.68;;
8232;SDS011;4157;48.074;9.952;2023-03-05T12:57:12;21.27;;;14.98;;
8232;SDS011;4157;48.074;9.952;2023-03-05T12:59:44;22.85;;;15.82;;
8232;SDS011;4157;48.074;9.952;2023-03-05T13:02:15;20.92;;;14.65;;
8232;SDS011;4157;48.074;9.952;2023-03-05T13:04:45;32.95;;;22.48;;
8232;SDS011;4157;48.074;9.952;2023-03-05T13:07:14;39.03;;;25.85;;
8232;SDS011;4157;48.074;9.952;2023-03-05T13:09:49;23.15;;;16.48;;
8232;SDS011;4157;48.074;9.952;2023-03-05T13:12:18;19.52;;;14.55;;
8232;SDS011;4157;48.074;9.952;2023-03-05T13:14:47;22.42;;;16.08;;
8232;SDS011;4157;48.074;9.952;2023-03-05T13:17:32;18.73;;;14.27;;
8232;SDS011;4157;48.074;9.952;2023-03-05T13:20:01;20.52;;;14.63;;
8232;SDS011;4157;48.074;9.952;2023-03-05T13:22:31;21.20;;;15.57;;
8232;SDS011;4157;48.074;9.952;2023-03-05T13:25:03;21.75;;;15.40;;
8232;SDS011;4157;48.074;9.952;2023-03-05T13:27:31;21.33;;;14.45;;
8232;SDS011;4157;48.074;9.952;2023-03-05T13:30:00;19.00;;;13.10;;
8232;SDS011;4157;48.074;9.952;2023-03-05T13:32:29;18.83;;;14.20;;
8232;SDS011;4157;48.074;9.952;2023-03-05T13:34:58;20.67;;;15.30;;
8232;SDS011;4157;48.074;9.952;2023-03-05T13:37:27;18.65;;;13.05;;
8232;SDS011;4157;48.074;9.952;2023-03-05T13:39:56;16.15;;;11.55;;
8232;SDS011;4157;48.074;9.952;2023-03-05T13:42:25;17.48;;;11.85;;
8232;SDS011;4157;48.074;9.952;2023-03-05T13:44:55;17.60;;;12.82;;
8232;SDS011;4157;48.074;9.952;2023-03-05T13:47:24;24.10;;;14.88;;
8232;SDS011;4157;48.074;9.952;2023-03-05T13:49:57;19.73;;;14.20;;
8232;SDS011;4157;48.074;9.952;2023-03-05T13:52:25;17.58;;;13.13;;
8232;SDS011;4157;48.074;9.952;2023-03-05T13:54:54;20.38;;;13.32;;
8232;SDS011;4157;48.074;9.952;2023-03-05T13:57:32;22.50;;;14.27;;
8232;SDS011;4157;48.074;9.952;2023-03-05T14:00:00;20.88;;;13.63;;
8232;SDS011;4157;48.074;9.952;2023-03-05T14:02:32;16.23;;;12.50;;
8232;SDS011;4157;48.074;9.952;2023-03-05T14:05:00;19.85;;;13.18;;
8232;SDS011;4157;48.074;9.952;2023-03-05T14:07:29;19.45;;;13.73;;
8232;SDS011;4157;48.074;9.952;2023-03-05T14:09:58;17.95;;;12.98;;
8232;SDS011;4157;48.074;9.952;2023-03-05T14:12:29;17.25;;;12.57;;
8232;SDS011;4157;48.074;9.952;2023-03-05T14:14:59;18.92;;;13.40;;
8232;SDS011;4157;48.074;9.952;2023-03-05T14:17:30;18.08;;;12.15;;
8232;SDS011;4157;48.074;9.952;2023-03-05T14:20:08;17.88;;;12.43;;
8232;SDS011;4157;48.074;9.952;2023-03-05T14:22:36;15.75;;;11.32;;
8232;SDS011;4157;48.074;9.952;2023-03-05T14:25:05;15.88;;;12.40;;
8232;SDS011;4157;48.074;9.952;2023-03-05T14:27:33;17.05;;;12.85;;
8232;SDS011;4157;48.074;9.952;2023-03-05T14:30:01;17.75;;;12.20;;
8232;SDS011;4157;48.074;9.952;2023-03-05T14:32:30;17.65;;;13.13;;
8232;SDS011;4157;48.074;9.952;2023-03-05T14:34:59;18.17;;;12.00;;
8232;SDS011;4157;48.074;9.952;2023-03-05T14:37:30;19.52;;;13.32;;
8232;SDS011;4157;48.074;9.952;2023-03-05T14:39:59;18.77;;;12.70;;
8232;SDS011;4157;48.074;9.952;2023-03-05T14:42:31;21.52;;;13.75;;
8232;SDS011;4157;48.074;9.952;2023-03-05T14:45:01;17.45;;;12.00;;
8232;SDS011;4157;48.074;9.952;2023-03-05T14:47:35;13.68;;;9.73;;
8232;SDS011;4157;48.074;9.952;2023-03-05T14:50:03;13.95;;;9.60;;
8232;SDS011;4157;48.074;9.952;2023-03-05T14:52:33;13.68;;;9.48;;
8232;SDS011;4157;48.074;9.952;2023-03-05T14:55:01;13.68;;;9.77;;
8232;SDS011;4157;48.074;9.952;2023-03-05T14:57:29;15.32;;;10.88;;
8232;SDS011;4157;48.074;9.952;2023-03-05T14:59:57;13.43;;;9.43;;
8232;SDS011;4157;48.074;9.952;2023-03-05T15:02:25;17.30;;;11.65;;
8232;SDS011;4157;48.074;9.952;2023-03-05T15:04:53;16.70;;;11.35;;
8232;SDS011;4157;48.074;9.952;2023-03-05T15:07:22;15.57;;;10.75;;
8232;SDS011;4157;48.074;9.952;2023-03-05T15:09:52;17.42;;;10.60;;
8232;SDS011;4157;48.074;9.952;2023-03-05T15:12:19;13.65;;;9.63;;
8232;SDS011;4157;48.074;9.952;2023-03-05T15:14:49;13.68;;;9.15;;
8232;SDS011;4157;48.074;9.952;2023-03-05T15:17:18;14.77;;;9.10;;
8232;SDS011;4157;48.074;9.952;2023-03-05T15:19:46;13.23;;;8.80;;